Time;durP1;ratioP1;P1;durP2;ratioP2;P2;SDS_P1;SDS_P2;PMS_P1;PMS_P2;Temp;Humidity;BMP_temperature;BMP_pressure;BME280_temperature;BME280_humidity;BME280_pressure;Samples;Min_cycle;Max_cycle;Signal;HPM_P1;HPM_P2
2023/09/24 00:00:59;;;;;;;4.93;2.67;;;;;;;;;;5052987;28;20025;-75
2023/09/24 00:03:25;;;;;;;3.85;2.40;;;;;;;;;;5052935;28;20165;-76
2023/09/24 00:05:53;;;;;;;4.45;2.65;;;;;;;;;;5052879;28;20100;-76
2023/09/24 00:08:19;;;;;;;3.47;2.38;;;;;;;;;;5052848;28;20063;-76
2023/09/24 00:10:52;;;;;;;5.95;2.47;;;;;;;;;;5052849;28;20025;-75
2023/09/24 00:13:22;;;;;;;3.65;2.25;;;;;;;;;;5053105;28;20029;-76
2023/09/24 00:15:47;;;;;;;4.53;2.40;;;;;;;;;;5052749;28;20036;-75
2023/09/24 00:18:13;;;;;;;5.15;2.45;;;;;;;;;;5052741;28;20021;-76
2023/09/24 00:20:39;;;;;;;3.45;2.20;;;;;;;;;;5052584;28;20154;-75
2023/09/24 00:23:04;;;;;;;3.67;2.38;;;;;;;;;;5052891;28;20021;-75
2023/09/24 00:25:29;;;;;;;4.40;2.22;;;;;;;;;;5053043;28;20021;-75
2023/09/24 00:27:55;;;;;;;3.37;2.30;;;;;;;;;;5052647;28;20032;-75
2023/09/24 00:30:20;;;;;;;4.00;2.10;;;;;;;;;;5052494;28;20257;-75
2023/09/24 00:32:46;;;;;;;5.45;2.60;;;;;;;;;;5052587;28;20027;-75
2023/09/24 00:35:11;;;;;;;3.63;2.15;;;;;;;;;;5052530;28;20021;-75
2023/09/24 00:37:37;;;;;;;4.07;2.35;;;;;;;;;;5052557;28;20075;-76
2023/09/24 00:40:02;;;;;;;7.05;2.67;;;;;;;;;;5052267;28;20114;-75
2023/09/24 00:42:28;;;;;;;3.50;2.50;;;;;;;;;;5051178;28;20456;-75
2023/09/24 00:44:53;;;;;;;4.68;2.38;;;;;;;;;;5051352;28;20017;-75
2023/09/24 00:47:19;;;;;;;5.88;2.55;;;;;;;;;;5052413;28;20021;-75
2023/09/24 00:49:44;;;;;;;4.13;2.50;;;;;;;;;;5051485;28;20099;-75
2023/09/24 00:52:10;;;;;;;5.03;2.35;;;;;;;;;;5051050;28;20052;-75
2023/09/24 00:54:37;;;;;;;7.00;2.38;;;;;;;;;;5052430;28;20025;-75
2023/09/24 00:57:03;;;;;;;6.35;2.60;;;;;;;;;;5056167;28;20025;-75
2023/09/24 00:59:29;;;;;;;4.63;2.60;;;;;;;;;;5056414;28;20585;-76
2023/09/24 01:01:54;;;;;;;6.03;2.70;;;;;;;;;;5055987;28;20032;-75
2023/09/24 01:04:20;;;;;;;3.90;2.45;;;;;;;;;;5056014;28;20021;-75
2023/09/24 01:06:45;;;;;;;4.85;2.58;;;;;;;;;;5056177;28;20100;-75
2023/09/24 01:09:13;;;;;;;3.35;2.40;;;;;;;;;;5055951;28;20028;-75
2023/09/24 01:11:38;;;;;;;3.15;2.05;;;;;;;;;;5055846;28;20021;-76
2023/09/24 01:14:04;;;;;;;4.07;2.67;;;;;;;;;;5054556;28;20090;-75
2023/09/24 01:16:32;;;;;;;9.13;2.70;;;;;;;;;;5055750;28;20021;-76
2023/09/24 01:18:58;;;;;;;5.25;2.50;;;;;;;;;;5054499;28;20021;-74
2023/09/24 01:21:27;;;;;;;6.38;2.60;;;;;;;;;;5055784;28;20029;-76
2023/09/24 01:23:54;;;;;;;3.25;2.30;;;;;;;;;;5054494;28;20033;-76
2023/09/24 01:26:21;;;;;;;3.78;2.30;;;;;;;;;;5054266;28;20055;-76
2023/09/24 01:28:47;;;;;;;5.88;2.55;;;;;;;;;;5055432;28;20021;-75
2023/09/24 01:31:15;;;;;;;6.53;2.40;;;;;;;;;;5054971;28;20111;-76
2023/09/24 01:33:41;;;;;;;3.30;2.25;;;;;;;;;;5054407;28;20107;-76
2023/09/24 01:36:07;;;;;;;4.50;2.42;;;;;;;;;;5055157;28;20096;-76
2023/09/24 01:38:33;;;;;;;3.53;2.20;;;;;;;;;;5054905;28;20032;-75
2023/09/24 01:40:59;;;;;;;3.35;2.20;;;;;;;;;;5055101;28;20036;-75
2023/09/24 01:43:24;;;;;;;3.63;2.05;;;;;;;;;;5053927;28;20395;-75
2023/09/24 01:45:49;;;;;;;4.07;2.20;;;;;;;;;;5053872;28;20016;-76
2023/09/24 01:48:17;;;;;;;3.15;2.13;;;;;;;;;;5055332;28;20033;-76
2023/09/24 01:50:43;;;;;;;5.82;2.60;;;;;;;;;;5055095;28;20499;-75
2023/09/24 01:53:09;;;;;;;5.88;2.90;;;;;;;;;;5055087;28;20083;-76
2023/09/24 01:55:38;;;;;;;5.00;2.63;;;;;;;;;;5054930;28;20422;-75
2023/09/24 01:58:03;;;;;;;4.18;2.25;;;;;;;;;;5054924;28;20025;-75
2023/09/24 02:00:28;;;;;;;6.20;3.35;;;;;;;;;;5054787;28;20071;-75
2023/09/24 02:03:07;;;;;;;4.50;2.35;;;;;;;;;;5054853;28;20043;-75
2023/09/24 02:05:34;;;;;;;3.78;2.38;;;;;;;;;;5055159;28;20025;-75
2023/09/24 02:08:00;;;;;;;4.45;2.60;;;;;;;;;;5052954;28;20029;-75
2023/09/24 02:10:27;;;;;;;5.13;2.53;;;;;;;;;;5054667;28;20432;-75
2023/09/24 02:12:52;;;;;;;3.92;2.15;;;;;;;;;;5054681;28;20016;-75
2023/09/24 02:15:18;;;;;;;2.97;2.10;;;;;;;;;;5054948;28;20033;-75
2023/09/24 02:17:50;;;;;;;4.80;2.30;;;;;;;;;;5053378;28;20024;-75
2023/09/24 02:20:18;;;;;;;3.92;2.30;;;;;;;;;;5054732;28;20025;-75
2023/09/24 02:22:45;;;;;;;4.85;2.40;;;;;;;;;;5054425;28;20028;-75
2023/09/24 02:25:13;;;;;;;5.72;2.33;;;;;;;;;;5053148;28;20032;-75
2023/09/24 02:27:38;;;;;;;4.80;2.40;;;;;;;;;;5053154;28;20492;-75
2023/09/24 02:30:04;;;;;;;4.30;2.28;;;;;;;;;;5054575;28;20024;-75
2023/09/24 02:32:30;;;;;;;3.83;2.47;;;;;;;;;;5054264;28;20104;-75
2023/09/24 02:34:55;;;;;;;3.55;2.10;;;;;;;;;;5053025;28;20079;-75
2023/09/24 02:37:22;;;;;;;4.15;2.20;;;;;;;;;;5054278;28;20064;-76
2023/09/24 02:39:48;;;;;;;5.18;2.50;;;;;;;;;;5052768;28;20104;-74
2023/09/24 02:42:14;;;;;;;3.40;2.03;;;;;;;;;;5054131;28;20494;-75
2023/09/24 02:44:39;;;;;;;4.90;2.25;;;;;;;;;;5054265;28;20016;-75
2023/09/24 02:47:06;;;;;;;5.43;1.92;;;;;;;;;;5054148;28;20024;-75
2023/09/24 02:49:32;;;;;;;3.95;2.28;;;;;;;;;;5053995;28;20056;-75
2023/09/24 02:51:57;;;;;;;3.60;2.30;;;;;;;;;;5052673;28;20040;-75
2023/09/24 02:54:23;;;;;;;4.43;2.13;;;;;;;;;;5053902;28;20482;-75
2023/09/24 02:56:48;;;;;;;5.63;2.40;;;;;;;;;;5052607;28;20491;-75
2023/09/24 02:59:14;;;;;;;3.67;2.25;;;;;;;;;;5053833;28;20483;-75
2023/09/24 03:01:40;;;;;;;4.70;2.22;;;;;;;;;;5052379;28;20032;-75
2023/09/24 03:04:07;;;;;;;4.90;2.13;;;;;;;;;;5052554;28;20017;-75
2023/09/24 03:06:33;;;;;;;4.50;2.10;;;;;;;;;;5053610;28;20025;-75
2023/09/24 03:08:58;;;;;;;4.75;2.30;;;;;;;;;;5052807;28;20024;-75
2023/09/24 03:11:24;;;;;;;5.50;2.67;;;;;;;;;;5053512;28;20498;-75
2023/09/24 03:13:49;;;;;;;4.82;2.60;;;;;;;;;;5053796;28;20490;-75
2023/09/24 03:16:14;;;;;;;5.07;2.40;;;;;;;;;;5053451;28;20021;-75
2023/09/24 03:18:39;;;;;;;8.88;2.65;;;;;;;;;;5051402;28;20293;-75
2023/09/24 03:21:04;;;;;;;4.33;2.50;;;;;;;;;;5053185;28;20036;-75
2023/09/24 03:23:30;;;;;;;4.45;2.30;;;;;;;;;;5053654;28;20028;-75
2023/09/24 03:25:55;;;;;;;5.00;2.20;;;;;;;;;;5053310;28;20021;-75
2023/09/24 03:28:20;;;;;;;4.43;2.10;;;;;;;;;;5053240;28;20794;-75
2023/09/24 03:30:45;;;;;;;5.85;2.45;;;;;;;;;;5053328;28;20387;-75
2023/09/24 03:33:11;;;;;;;4.40;2.25;;;;;;;;;;5053311;28;20044;-75
2023/09/24 03:35:36;;;;;;;4.95;2.22;;;;;;;;;;5053155;28;20036;-76
2023/09/24 03:38:02;;;;;;;5.13;2.10;;;;;;;;;;5053456;28;20029;-75
2023/09/24 03:40:28;;;;;;;3.42;2.00;;;;;;;;;;5053075;28;20032;-75
2023/09/24 03:42:53;;;;;;;3.75;1.90;;;;;;;;;;5051838;28;20017;-75
2023/09/24 03:45:20;;;;;;;6.72;2.53;;;;;;;;;;5053307;28;20025;-75
2023/09/24 03:47:46;;;;;;;3.00;1.80;;;;;;;;;;5053305;28;20021;-75
2023/09/24 03:50:16;;;;;;;4.25;1.90;;;;;;;;;;5053027;28;20031;-76
2023/09/24 03:52:52;;;;;;;2.42;1.70;;;;;;;;;;5051635;28;20028;-75
2023/09/24 03:55:19;;;;;;;3.88;1.75;;;;;;;;;;5052985;28;20484;-75
2023/09/24 03:57:47;;;;;;;3.10;1.92;;;;;;;;;;5051678;28;20051;-75
2023/09/24 04:00:15;;;;;;;3.35;2.08;;;;;;;;;;5052781;28;20024;-75
2023/09/24 04:02:41;;;;;;;4.20;2.40;;;;;;;;;;5052782;28;20029;-76
2023/09/24 04:05:09;;;;;;;4.40;2.05;;;;;;;;;;5052863;28;20024;-75
2023/09/24 04:07:37;;;;;;;3.90;2.22;;;;;;;;;;5053074;28;20091;-76
2023/09/24 04:10:03;;;;;;;3.13;2.00;;;;;;;;;;5052699;28;20032;-74
2023/09/24 04:12:30;;;;;;;3.38;1.85;;;;;;;;;;5053023;28;20157;-75
2023/09/24 04:14:55;;;;;;;6.05;1.92;;;;;;;;;;5051509;28;20021;-75
2023/09/24 04:17:21;;;;;;;3.55;2.00;;;;;;;;;;5051421;28;20036;-75
2023/09/24 04:19:46;;;;;;;3.72;2.05;;;;;;;;;;5052961;28;20017;-75
2023/09/24 04:22:11;;;;;;;2.22;1.63;;;;;;;;;;5052871;28;20055;-75
2023/09/24 04:24:37;;;;;;;3.17;1.77;;;;;;;;;;5052630;28;20079;-75
2023/09/24 04:27:02;;;;;;;3.28;1.95;;;;;;;;;;5051496;28;20043;-76
2023/09/24 04:29:27;;;;;;;4.10;1.63;;;;;;;;;;5052080;28;20021;-76
2023/09/24 04:31:53;;;;;;;3.28;1.83;;;;;;;;;;5054891;28;20091;-75
2023/09/24 04:34:19;;;;;;;5.32;2.13;;;;;;;;;;5056579;28;20021;-76
2023/09/24 04:36:44;;;;;;;4.85;2.03;;;;;;;;;;5055285;28;20391;-76
2023/09/24 04:39:10;;;;;;;2.72;1.90;;;;;;;;;;5056324;28;20032;-75
2023/09/24 04:41:39;;;;;;;2.95;1.90;;;;;;;;;;5056487;28;20392;-75
2023/09/24 04:44:05;;;;;;;5.50;2.33;;;;;;;;;;5055191;28;20025;-75
2023/09/24 04:46:30;;;;;;;3.75;2.10;;;;;;;;;;5055086;28;20029;-75
2023/09/24 04:48:56;;;;;;;5.35;2.00;;;;;;;;;;5056362;28;20021;-76
2023/09/24 04:51:21;;;;;;;4.88;2.10;;;;;;;;;;5056198;28;20025;-75
2023/09/24 04:53:46;;;;;;;3.85;1.73;;;;;;;;;;5054972;28;20074;-76
2023/09/24 04:56:11;;;;;;;3.03;1.90;;;;;;;;;;5054857;28;20020;-76
2023/09/24 04:58:37;;;;;;;4.80;1.80;;;;;;;;;;5056473;28;20047;-75
2023/09/24 05:01:07;;;;;;;4.00;2.00;;;;;;;;;;5056075;28;20395;-77
2023/09/24 05:03:34;;;;;;;2.83;1.80;;;;;;;;;;5054782;28;20373;-75
2023/09/24 05:06:00;;;;;;;2.90;1.98;;;;;;;;;;5056047;28;20079;-76
2023/09/24 05:08:25;;;;;;;2.17;1.50;;;;;;;;;;5054742;28;20033;-76
2023/09/24 05:10:50;;;;;;;3.30;1.75;;;;;;;;;;5055845;28;20021;-76
2023/09/24 05:13:16;;;;;;;2.55;1.70;;;;;;;;;;5056134;28;20111;-75
2023/09/24 05:15:49;;;;;;;2.65;1.80;;;;;;;;;;5056142;28;20028;-75
2023/09/24 05:18:14;;;;;;;3.65;1.95;;;;;;;;;;5056186;28;20021;-75
2023/09/24 05:20:40;;;;;;;2.55;1.60;;;;;;;;;;5055818;28;20082;-75
2023/09/24 05:23:05;;;;;;;3.33;1.98;;;;;;;;;;5055704;28;20025;-76
2023/09/24 05:25:33;;;;;;;5.13;1.90;;;;;;;;;;5055760;28;20480;-75
2023/09/24 05:27:59;;;;;;;4.72;1.92;;;;;;;;;;5055853;28;20040;-75
2023/09/24 05:30:24;;;;;;;2.40;1.73;;;;;;;;;;5054752;28;20419;-76
2023/09/24 05:32:49;;;;;;;3.38;1.67;;;;;;;;;;5055510;28;20036;-75
2023/09/24 05:35:15;;;;;;;3.30;1.90;;;;;;;;;;5055371;28;20468;-75
2023/09/24 05:37:40;;;;;;;4.53;2.03;;;;;;;;;;5054207;28;20387;-76
2023/09/24 05:40:06;;;;;;;2.58;1.85;;;;;;;;;;5055211;28;20029;-75
2023/09/24 05:42:31;;;;;;;3.17;1.65;;;;;;;;;;5053260;28;20029;-74
2023/09/24 05:44:56;;;;;;;4.80;1.70;;;;;;;;;;5055274;28;20052;-75
2023/09/24 05:47:22;;;;;;;2.78;1.70;;;;;;;;;;5055293;28;20051;-75
2023/09/24 05:49:47;;;;;;;2.88;1.70;;;;;;;;;;5055322;28;20047;-75
2023/09/24 05:52:12;;;;;;;3.55;1.63;;;;;;;;;;5055008;28;20104;-75
2023/09/24 05:54:37;;;;;;;3.38;1.90;;;;;;;;;;5055108;28;20025;-76
2023/09/24 05:57:03;;;;;;;2.53;1.80;;;;;;;;;;5055048;28;20032;-74
2023/09/24 05:59:28;;;;;;;2.35;1.60;;;;;;;;;;5055057;28;20272;-74
2023/09/24 06:01:54;;;;;;;3.28;1.60;;;;;;;;;;5053643;28;20112;-74
2023/09/24 06:04:19;;;;;;;3.38;1.92;;;;;;;;;;5055025;28;20048;-75
2023/09/24 06:06:44;;;;;;;3.13;1.80;;;;;;;;;;5054809;28;20112;-75
2023/09/24 06:09:10;;;;;;;3.83;1.90;;;;;;;;;;5055044;28;20285;-75
2023/09/24 06:11:37;;;;;;;2.45;1.73;;;;;;;;;;5055800;28;20036;-74
2023/09/24 06:14:08;;;;;;;4.25;1.90;;;;;;;;;;5053610;28;20021;-74
2023/09/24 06:16:35;;;;;;;3.38;1.83;;;;;;;;;;5053665;28;20029;-76
2023/09/24 06:19:00;;;;;;;3.47;2.10;;;;;;;;;;5053484;28;20028;-76
2023/09/24 06:21:26;;;;;;;5.03;1.80;;;;;;;;;;5053195;28;20051;-76
2023/09/24 06:23:51;;;;;;;2.60;1.60;;;;;;;;;;5054486;28;20495;-76
2023/09/24 06:26:19;;;;;;;3.33;1.65;;;;;;;;;;5053143;28;20621;-76
2023/09/24 06:28:44;;;;;;;3.53;1.73;;;;;;;;;;5054472;28;20025;-76
2023/09/24 06:31:09;;;;;;;9.07;2.30;;;;;;;;;;5053449;28;20023;-75
2023/09/24 06:33:34;;;;;;;7.00;2.63;;;;;;;;;;5054535;28;20078;-75
2023/09/24 06:36:03;;;;;;;4.25;2.15;;;;;;;;;;5054248;28;20258;-74
2023/09/24 06:38:29;;;;;;;4.75;2.63;;;;;;;;;;5055841;28;20020;-82
2023/09/24 06:41:05;;;;;;;4.50;2.28;;;;;;;;;;5052097;28;20438;-76
2023/09/24 06:43:35;;;;;;;3.72;2.05;;;;;;;;;;5053278;28;20029;-77
2023/09/24 06:46:04;;;;;;;4.65;1.90;;;;;;;;;;5053039;28;20056;-76
2023/09/24 06:48:30;;;;;;;2.55;1.67;;;;;;;;;;5053217;28;20064;-75
2023/09/24 06:50:55;;;;;;;4.85;2.00;;;;;;;;;;5052038;28;20052;-75
2023/09/24 06:53:23;;;;;;;3.22;1.70;;;;;;;;;;5054082;28;20538;-75
2023/09/24 06:55:48;;;;;;;4.18;2.00;;;;;;;;;;5054344;28;20055;-75
2023/09/24 06:58:13;;;;;;;3.05;1.80;;;;;;;;;;5054448;28;20025;-74
2023/09/24 07:00:39;;;;;;;4.43;1.80;;;;;;;;;;5053870;28;20116;-75
2023/09/24 07:03:05;;;;;;;5.20;1.80;;;;;;;;;;5052628;28;20392;-75
2023/09/24 07:05:31;;;;;;;2.38;1.73;;;;;;;;;;5053706;28;20479;-76
2023/09/24 07:07:59;;;;;;;6.03;1.90;;;;;;;;;;5055106;28;20025;-79
2023/09/24 07:10:24;;;;;;;2.53;1.60;;;;;;;;;;5054449;28;20025;-78
2023/09/24 07:12:51;;;;;;;4.03;2.58;;;;;;;;;;5054734;28;20032;-76
2023/09/24 07:15:16;;;;;;;4.03;2.58;;;;;;;;;;5055728;28;20024;-79
2023/09/24 07:17:42;;;;;;;3.00;1.73;;;;;;;;;;5054461;28;20044;-76
2023/09/24 07:20:08;;;;;;;2.60;1.75;;;;;;;;;;5052093;28;20025;-76
2023/09/24 07:22:33;;;;;;;3.88;2.20;;;;;;;;;;5053324;28;20017;-75
2023/09/24 07:24:58;;;;;;;4.38;1.88;;;;;;;;;;5052452;28;20084;-75
2023/09/24 07:27:24;;;;;;;3.88;1.90;;;;;;;;;;5053683;28;20049;-76
2023/09/24 07:29:50;;;;;;;3.33;1.80;;;;;;;;;;5053923;28;20025;-75
2023/09/24 07:32:15;;;;;;;4.47;2.10;;;;;;;;;;5052822;28;20103;-75
2023/09/24 07:34:41;;;;;;;4.50;1.80;;;;;;;;;;5052334;28;20048;-74
2023/09/24 07:37:08;;;;;;;4.43;1.60;;;;;;;;;;5053528;28;20079;-75
2023/09/24 07:39:34;;;;;;;2.08;1.45;;;;;;;;;;5052235;28;20036;-75
2023/09/24 07:42:00;;;;;;;6.60;1.92;;;;;;;;;;5053186;28;20029;-75
2023/09/24 07:44:26;;;;;;;3.55;1.67;;;;;;;;;;5053294;28;20070;-75
2023/09/24 07:46:52;;;;;;;3.15;1.73;;;;;;;;;;5052017;28;20025;-75
2023/09/24 07:49:17;;;;;;;3.42;1.77;;;;;;;;;;5052124;28;20060;-74
2023/09/24 07:51:43;;;;;;;3.30;1.60;;;;;;;;;;5053079;28;20017;-75
2023/09/24 07:54:08;;;;;;;2.92;1.80;;;;;;;;;;5053255;28;20079;-75
2023/09/24 07:56:34;;;;;;;2.63;1.73;;;;;;;;;;5053037;28;20021;-75
2023/09/24 07:59:02;;;;;;;5.18;1.85;;;;;;;;;;5053248;28;20036;-75
2023/09/24 08:01:27;;;;;;;3.53;1.63;;;;;;;;;;5052983;28;20032;-74
2023/09/24 08:03:53;;;;;;;2.75;1.55;;;;;;;;;;5053450;28;20029;-75
2023/09/24 08:06:18;;;;;;;4.30;1.70;;;;;;;;;;5052524;28;20029;-74
2023/09/24 08:08:44;;;;;;;4.68;1.60;;;;;;;;;;5053458;28;20063;-74
2023/09/24 08:11:09;;;;;;;4.60;1.80;;;;;;;;;;5053294;28;20095;-75
2023/09/24 08:13:34;;;;;;;7.35;1.60;;;;;;;;;;5053071;28;20449;-75
2023/09/24 08:16:00;;;;;;;6.40;1.63;;;;;;;;;;5052913;28;20024;-75
2023/09/24 08:18:26;;;;;;;4.30;1.65;;;;;;;;;;5053399;28;20017;-75
2023/09/24 08:20:53;;;;;;;2.03;1.45;;;;;;;;;;5052952;28;20036;-75
2023/09/24 08:23:20;;;;;;;4.05;1.60;;;;;;;;;;5051748;28;20483;-75
2023/09/24 08:25:45;;;;;;;4.10;1.60;;;;;;;;;;5051508;28;20094;-76
2023/09/24 08:28:11;;;;;;;2.72;1.80;;;;;;;;;;5051320;28;20064;-75
2023/09/24 08:30:36;;;;;;;2.40;1.60;;;;;;;;;;5052904;28;20025;-75
2023/09/24 08:33:04;;;;;;;3.78;1.55;;;;;;;;;;5051455;28;20025;-75
2023/09/24 08:35:29;;;;;;;3.70;1.67;;;;;;;;;;5052773;28;20025;-76
2023/09/24 08:37:54;;;;;;;5.28;1.75;;;;;;;;;;5052642;28;20029;-76
2023/09/24 08:40:20;;;;;;;4.28;1.60;;;;;;;;;;5052297;28;20079;-75
2023/09/24 08:42:50;;;;;;;1.92;1.40;;;;;;;;;;5052721;28;20471;-75
2023/09/24 08:45:20;;;;;;;3.05;1.90;;;;;;;;;;5052498;28;20496;-76
2023/09/24 08:47:47;;;;;;;4.90;1.95;;;;;;;;;;5051191;28;20442;-76
2023/09/24 08:50:14;;;;;;;3.97;1.70;;;;;;;;;;5052508;28;20021;-75
2023/09/24 08:52:42;;;;;;;4.55;1.80;;;;;;;;;;5052775;28;20052;-75
2023/09/24 08:55:09;;;;;;;4.38;1.60;;;;;;;;;;5052695;28;20025;-74
2023/09/24 08:57:36;;;;;;;4.28;1.60;;;;;;;;;;5051277;28;20089;-75
2023/09/24 09:00:04;;;;;;;5.13;2.22;;;;;;;;;;5051390;28;20450;-75
2023/09/24 09:02:30;;;;;;;6.05;1.88;;;;;;;;;;5052439;28;20032;-75
2023/09/24 09:04:56;;;;;;;3.33;1.90;;;;;;;;;;5052925;28;20513;-75
2023/09/24 09:07:21;;;;;;;3.53;1.73;;;;;;;;;;5052404;28;20064;-75
2023/09/24 09:09:57;;;;;;;4.95;1.80;;;;;;;;;;5051079;28;20488;-75
2023/09/24 09:12:23;;;;;;;4.47;1.83;;;;;;;;;;5052604;28;20052;-76
2023/09/24 09:14:49;;;;;;;3.95;1.77;;;;;;;;;;5052385;28;20032;-75
2023/09/24 09:17:14;;;;;;;4.35;1.80;;;;;;;;;;5053151;28;20476;-75
2023/09/24 09:19:48;;;;;;;4.25;1.92;;;;;;;;;;5055809;28;20037;-75
2023/09/24 09:22:18;;;;;;;4.95;2.20;;;;;;;;;;5055668;28;20025;-75
2023/09/24 09:24:46;;;;;;;5.30;2.20;;;;;;;;;;5056049;28;20028;-75
2023/09/24 09:27:11;;;;;;;5.43;2.10;;;;;;;;;;5055644;28;20036;-75
2023/09/24 09:29:36;;;;;;;6.75;2.22;;;;;;;;;;5054347;28;20119;-75
2023/09/24 09:32:02;;;;;;;4.85;2.00;;;;;;;;;;5055522;28;20032;-75
2023/09/24 09:34:29;;;;;;;6.07;2.22;;;;;;;;;;5055806;28;20021;-75
2023/09/24 09:37:14;;;;;;;4.13;2.28;;;;;;;;;;5055346;28;20025;-76
2023/09/24 09:39:40;;;;;;;3.22;1.92;;;;;;;;;;5055359;28;20440;-76
2023/09/24 09:42:09;;;;;;;3.40;2.10;;;;;;;;;;5055100;28;20060;-76
2023/09/24 09:44:36;;;;;;;3.38;2.25;;;;;;;;;;5055235;28;20036;-76
2023/09/24 09:47:04;;;;;;;6.00;2.00;;;;;;;;;;5055344;28;20082;-76
2023/09/24 09:49:32;;;;;;;3.63;2.28;;;;;;;;;;5055115;28;20028;-76
2023/09/24 09:52:02;;;;;;;4.57;2.55;;;;;;;;;;5055004;28;20096;-75
2023/09/24 09:54:33;;;;;;;4.55;2.40;;;;;;;;;;5053798;28;20480;-76
2023/09/24 09:56:58;;;;;;;8.27;2.60;;;;;;;;;;5053892;28;20067;-76
2023/09/24 09:59:25;;;;;;;5.22;2.35;;;;;;;;;;5055328;28;20049;-76
2023/09/24 10:01:51;;;;;;;4.72;2.60;;;;;;;;;;5055413;28;20039;-77
2023/09/24 10:04:17;;;;;;;4.35;2.30;;;;;;;;;;5055740;28;20116;-76
2023/09/24 10:06:42;;;;;;;5.28;2.42;;;;;;;;;;5054382;28;20029;-76
2023/09/24 10:09:26;;;;;;;7.97;2.67;;;;;;;;;;5054800;28;20027;-75
2023/09/24 10:11:52;;;;;;;;;;;;;;;;;;5054148;28;20052;-75
2023/09/24 10:14:38;;;;;;;5.18;2.65;;;;;;;;;;5054723;28;19951;-75
2023/09/24 10:17:15;;;;;;;4.72;3.35;;;;;;;;;;5053639;28;20112;-75
2023/09/24 10:19:48;;;;;;;3.42;2.67;;;;;;;;;;5054570;28;20103;-75
2023/09/24 10:22:24;;;;;;;5.15;2.35;;;;;;;;;;5055196;28;20497;-75
2023/09/24 10:24:49;;;;;;;5.32;3.03;;;;;;;;;;5053114;28;20029;-75
2023/09/24 10:27:15;;;;;;;6.25;2.58;;;;;;;;;;5053498;28;20031;-75
2023/09/24 10:29:44;;;;;;;6.40;2.55;;;;;;;;;;5054453;28;20021;-76
2023/09/24 10:32:21;;;;;;;4.50;2.40;;;;;;;;;;5052982;28;20036;-76
2023/09/24 10:34:55;;;;;;;4.20;2.38;;;;;;;;;;5055330;28;20403;-76
2023/09/24 10:37:24;;;;;;;4.13;2.45;;;;;;;;;;5055218;28;20391;-75
2023/09/24 10:40:04;;;;;;;5.47;2.63;;;;;;;;;;5052895;28;20067;-77
2023/09/24 10:42:42;;;;;;;4.43;2.15;;;;;;;;;;5055387;28;20557;-81
2023/09/24 10:45:07;;;;;;;4.82;1.90;;;;;;;;;;5059651;28;20104;-76
2023/09/24 10:47:38;;;;;;;3.87;1.83;;;;;;;;;;5054226;28;20056;-75
2023/09/24 10:50:03;;;;;;;3.78;1.98;;;;;;;;;;5054860;28;20266;-75
2023/09/24 10:52:50;;;;;;;6.97;2.00;;;;;;;;;;5054433;28;20024;-77
2023/09/24 10:55:16;;;;;;;4.35;2.30;;;;;;;;;;5052305;28;20090;-74
2023/09/24 10:57:45;;;;;;;5.35;1.80;;;;;;;;;;5054235;28;20345;-76
2023/09/24 11:00:16;;;;;;;4.72;1.90;;;;;;;;;;5053462;28;20055;-73
2023/09/24 11:02:41;;;;;;;3.33;1.80;;;;;;;;;;5054277;28;20108;-74
2023/09/24 11:05:07;;;;;;;3.65;1.80;;;;;;;;;;5054360;28;20055;-74
2023/09/24 11:07:32;;;;;;;2.22;1.73;;;;;;;;;;5053870;28;20020;-75
2023/09/24 11:09:57;;;;;;;2.92;1.65;;;;;;;;;;5053705;28;20056;-75
2023/09/24 11:12:23;;;;;;;2.70;1.52;;;;;;;;;;5053884;28;20027;-74
2023/09/24 11:14:56;;;;;;;2.42;1.45;;;;;;;;;;5053177;28;20036;-74
2023/09/24 11:17:23;;;;;;;2.85;1.75;;;;;;;;;;5053573;28;20016;-73
2023/09/24 11:19:49;;;;;;;2.20;1.45;;;;;;;;;;5050938;28;20025;-75
2023/09/24 11:22:21;;;;;;;3.65;1.73;;;;;;;;;;5051985;28;20021;-76
2023/09/24 11:25:08;;;;;;;3.72;1.60;;;;;;;;;;5052642;28;20431;-74
2023/09/24 11:27:35;;;;;;;1.77;1.40;;;;;;;;;;5053367;28;20032;-74
2023/09/24 11:30:03;;;;;;;3.78;1.50;;;;;;;;;;5051940;28;20025;-74
2023/09/24 11:32:29;;;;;;;3.25;1.30;;;;;;;;;;5053173;28;20036;-74
2023/09/24 11:35:25;;;;;;;2.67;1.25;;;;;;;;;;5054061;28;20033;-76
2023/09/24 11:37:53;;;;;;;1.90;1.13;;;;;;;;;;5049249;28;20037;-75
2023/09/24 11:40:25;;;;;;;2.33;1.15;;;;;;;;;;5053412;28;20121;-74
2023/09/24 11:42:57;;;;;;;1.92;1.20;;;;;;;;;;5053919;28;20029;-74
2023/09/24 11:45:42;;;;;;;1.70;1.17;;;;;;;;;;5053063;28;20475;-74
2023/09/24 11:48:15;;;;;;;2.60;1.25;;;;;;;;;;5054072;28;20029;-73
2023/09/24 11:50:49;;;;;;;2.27;1.30;;;;;;;;;;5054084;28;20123;-74
2023/09/24 11:53:15;;;;;;;3.08;1.30;;;;;;;;;;5054004;28;20017;-74
2023/09/24 11:55:41;;;;;;;2.20;1.33;;;;;;;;;;5054246;28;20163;-74
2023/09/24 11:58:07;;;;;;;2.53;1.20;;;;;;;;;;5053851;28;20060;-73
2023/09/24 12:00:34;;;;;;;2.28;1.30;;;;;;;;;;5053596;28;20094;-74
2023/09/24 12:03:00;;;;;;;5.63;1.20;;;;;;;;;;5052111;28;20502;-74
2023/09/24 12:05:27;;;;;;;3.85;1.50;;;;;;;;;;5052269;28;20039;-74
2023/09/24 12:07:52;;;;;;;2.78;1.40;;;;;;;;;;5052742;28;20033;-73
2023/09/24 12:10:18;;;;;;;2.28;1.00;;;;;;;;;;5053607;28;20399;-74
2023/09/24 12:12:44;;;;;;;2.15;0.90;;;;;;;;;;5053363;28;20042;-73
2023/09/24 12:15:09;;;;;;;1.42;1.10;;;;;;;;;;5053914;28;20033;-74
2023/09/24 12:17:37;;;;;;;1.88;0.90;;;;;;;;;;5052315;28;20033;-73
2023/09/24 12:20:04;;;;;;;0.82;0.82;;;;;;;;;;5053508;28;20442;-75
2023/09/24 12:22:30;;;;;;;2.00;1.10;;;;;;;;;;5053488;28;20060;-74
2023/09/24 12:24:57;;;;;;;3.55;1.00;;;;;;;;;;5052165;28;20052;-74
2023/09/24 12:27:22;;;;;;;1.10;1.00;;;;;;;;;;5053757;28;20438;-73
2023/09/24 12:29:47;;;;;;;1.27;1.00;;;;;;;;;;5052367;28;20021;-73
2023/09/24 12:32:12;;;;;;;3.23;0.97;;;;;;;;;;5052132;28;20025;-74
2023/09/24 12:34:38;;;;;;;1.73;1.00;;;;;;;;;;5053527;28;20751;-73
2023/09/24 12:37:03;;;;;;;1.52;1.05;;;;;;;;;;5053667;28;20265;-74
2023/09/24 12:39:28;;;;;;;1.67;1.10;;;;;;;;;;5053102;28;20051;-74
2023/09/24 12:41:53;;;;;;;3.43;1.50;;;;;;;;;;5054077;28;20290;-75
2023/09/24 12:44:18;;;;;;;3.25;1.10;;;;;;;;;;5051941;28;20258;-75
2023/09/24 12:46:44;;;;;;;1.30;1.03;;;;;;;;;;5053436;28;20099;-72
2023/09/24 12:49:09;;;;;;;3.53;1.20;;;;;;;;;;5052599;28;20274;-74
2023/09/24 12:51:35;;;;;;;0.98;0.85;;;;;;;;;;5054094;28;20025;-74
2023/09/24 12:54:00;;;;;;;2.50;1.13;;;;;;;;;;5057244;28;20029;-74
2023/09/24 12:56:25;;;;;;;2.97;1.00;;;;;;;;;;5057785;28;20112;-74
2023/09/24 12:58:51;;;;;;;1.80;0.87;;;;;;;;;;5056849;28;20096;-73
2023/09/24 13:01:20;;;;;;;3.10;1.10;;;;;;;;;;5055781;28;20249;-74
2023/09/24 13:03:45;;;;;;;2.42;1.00;;;;;;;;;;5055734;28;20025;-74
2023/09/24 13:06:15;;;;;;;2.55;1.10;;;;;;;;;;5055738;28;20029;-77
2023/09/24 13:08:41;;;;;;;2.00;1.00;;;;;;;;;;5055776;28;20028;-74
2023/09/24 13:11:06;;;;;;;4.07;1.27;;;;;;;;;;5057136;28;20024;-74
2023/09/24 13:13:31;;;;;;;1.50;0.90;;;;;;;;;;5056868;28;20021;-74
2023/09/24 13:15:56;;;;;;;2.17;1.00;;;;;;;;;;5055185;28;20254;-74
2023/09/24 13:18:22;;;;;;;3.05;1.00;;;;;;;;;;5056898;28;20294;-74
2023/09/24 13:20:48;;;;;;;17.33;1.50;;;;;;;;;;5056661;28;20383;-75
2023/09/24 13:23:13;;;;;;;1.60;1.00;;;;;;;;;;5055289;28;20312;-75
2023/09/24 13:25:38;;;;;;;2.78;1.02;;;;;;;;;;5055380;28;20453;-75
2023/09/24 13:28:03;;;;;;;3.67;1.30;;;;;;;;;;5055344;28;20083;-74
2023/09/24 13:30:31;;;;;;;2.42;1.00;;;;;;;;;;5056481;28;20035;-74
2023/09/24 13:32:57;;;;;;;2.08;1.00;;;;;;;;;;5056925;28;20047;-74
2023/09/24 13:35:22;;;;;;;1.70;1.08;;;;;;;;;;5057205;28;20020;-75
2023/09/24 13:37:49;;;;;;;2.63;1.10;;;;;;;;;;5057078;28;20053;-75
2023/09/24 13:40:15;;;;;;;13.85;7.57;;;;;;;;;;5056028;28;20278;-74
2023/09/24 13:42:40;;;;;;;2.17;1.40;;;;;;;;;;5056263;28;20021;-74
2023/09/24 13:45:07;;;;;;;2.33;1.15;;;;;;;;;;5055872;28;20107;-74
2023/09/24 13:47:32;;;;;;;1.05;0.93;;;;;;;;;;5056077;28;20028;-74
2023/09/24 13:49:57;;;;;;;3.20;1.10;;;;;;;;;;5055645;28;20025;-74
2023/09/24 13:52:23;;;;;;;1.20;0.80;;;;;;;;;;5055897;28;20539;-75
2023/09/24 13:54:48;;;;;;;1.77;0.97;;;;;;;;;;5055864;28;20423;-74
2023/09/24 13:57:13;;;;;;;2.95;1.00;;;;;;;;;;5054826;28;20254;-74
2023/09/24 13:59:38;;;;;;;2.00;0.93;;;;;;;;;;5055994;28;20075;-76
2023/09/24 14:02:05;;;;;;;1.50;0.93;;;;;;;;;;5055577;28;20468;-76
2023/09/24 14:04:31;;;;;;;2.63;1.10;;;;;;;;;;5056083;28;20076;-74
2023/09/24 14:06:57;;;;;;;2.55;1.00;;;;;;;;;;5058877;28;20024;-74
2023/09/24 14:12:21;;;;;;;1.45;0.85;;;;;;;;;;5055759;28;20028;-75
2023/09/24 14:14:48;;;;;;;2.45;0.65;;;;;;;;;;5054334;28;20032;-75
2023/09/24 14:17:14;;;;;;;1.67;0.85;;;;;;;;;;5054353;28;20183;-74
2023/09/24 14:19:39;;;;;;;0.70;0.70;;;;;;;;;;5055809;28;20492;-74
2023/09/24 14:22:04;;;;;;;0.80;0.70;;;;;;;;;;5055657;28;20029;-74
2023/09/24 14:24:29;;;;;;;1.13;0.90;;;;;;;;;;5055216;28;20254;-73
2023/09/24 14:26:55;;;;;;;1.17;0.70;;;;;;;;;;5054213;28;20021;-75
2023/09/24 14:29:20;;;;;;;2.15;0.77;;;;;;;;;;5054016;28;20083;-76
2023/09/24 14:31:46;;;;;;;4.25;0.80;;;;;;;;;;5055167;28;20480;-73
2023/09/24 14:34:11;;;;;;;6.13;3.42;;;;;;;;;;5053714;28;20427;-73
2023/09/24 14:36:37;;;;;;;3.30;1.52;;;;;;;;;;5053534;28;20025;-73
2023/09/24 14:39:03;;;;;;;2.58;1.00;;;;;;;;;;5054820;28;20112;-75
2023/09/24 14:41:28;;;;;;;2.05;0.90;;;;;;;;;;5055076;28;20021;-75
2023/09/24 14:43:54;;;;;;;0.93;0.77;;;;;;;;;;5054543;28;20438;-73